createdAt,value
2023-03-19T00:01:08.875Z,10.93
2023-03-19T00:03:47.335Z,10.92
2023-03-19T00:06:15.828Z,11.03
2023-03-19T00:08:44.048Z,10.96
2023-03-19T00:11:13.749Z,11.03
2023-03-19T00:13:41.767Z,10.88
2023-03-19T00:16:09.980Z,10.90
2023-03-19T00:18:39.559Z,10.75
2023-03-19T00:21:08.006Z,10.77
2023-03-19T00:23:36.314Z,10.86
2023-03-19T00:26:04.905Z,10.78
2023-03-19T00:28:32.994Z,10.82
2023-03-19T00:31:08.796Z,10.72
2023-03-19T00:33:36.972Z,10.57
2023-03-19T00:36:08.004Z,10.66
2023-03-19T00:38:36.068Z,10.54
2023-03-19T00:41:05.294Z,10.59
2023-03-19T00:43:33.326Z,10.53
2023-03-19T00:46:01.519Z,10.62
2023-03-19T00:48:29.942Z,10.59
2023-03-19T00:50:57.945Z,10.59
2023-03-19T00:53:27.373Z,10.65
2023-03-19T00:55:55.439Z,10.46
2023-03-19T00:58:23.447Z,10.54
2023-03-19T01:00:53.997Z,10.49
2023-03-19T01:03:22.136Z,10.59
2023-03-19T01:08:18.644Z,10.58
2023-03-19T01:10:48.305Z,10.50
2023-03-19T01:13:16.685Z,10.58
2023-03-19T01:15:44.940Z,10.54
2023-03-19T01:18:13.486Z,10.51
2023-03-19T01:20:42.253Z,10.48
2023-03-19T01:23:10.217Z,10.38
2023-03-19T01:25:38.617Z,10.53
2023-03-19T01:28:08.737Z,10.58
2023-03-19T01:30:36.739Z,10.53
2023-03-19T01:33:04.890Z,10.40
2023-03-19T01:35:33.107Z,10.50
2023-03-19T01:38:01.936Z,10.41
2023-03-19T01:40:33.665Z,10.38
2023-03-19T01:43:16.051Z,10.21
2023-03-19T01:45:44.485Z,10.20
2023-03-19T01:48:18.947Z,10.16
2023-03-19T01:50:50.349Z,10.17
2023-03-19T01:53:19.337Z,10.23
2023-03-19T01:55:47.346Z,10.15
2023-03-19T01:58:17.159Z,10.23
2023-03-19T02:00:45.760Z,10.21
2023-03-19T02:03:13.727Z,10.18
2023-03-19T02:05:42.050Z,10.14
2023-03-19T02:08:11.826Z,10.22
2023-03-19T02:10:39.835Z,10.20
2023-03-19T02:13:08.676Z,10.21
2023-03-19T02:15:38.417Z,10.26
2023-03-19T02:18:07.108Z,10.18
2023-03-19T02:20:36.638Z,10.35
2023-03-19T02:23:10.222Z,10.37
2023-03-19T02:25:41.865Z,10.41
2023-03-19T02:28:11.342Z,10.29
2023-03-19T02:30:41.846Z,10.31
2023-03-19T02:33:11.686Z,10.25
2023-03-19T02:35:39.705Z,10.17
2023-03-19T02:38:07.770Z,10.24
2023-03-19T02:40:37.347Z,10.20
2023-03-19T02:43:06.626Z,10.20
2023-03-19T02:45:36.370Z,10.12
2023-03-19T02:48:05.332Z,10.18
2023-03-19T02:50:34.015Z,10.09
2023-03-19T02:53:05.104Z,10.03
2023-03-19T02:55:33.318Z,10.09
2023-03-19T02:58:01.309Z,10.18
2023-03-19T03:00:29.452Z,10.06
2023-03-19T03:02:58.909Z,10.10
2023-03-19T03:05:26.964Z,10.06
2023-03-19T03:07:55.652Z,10.09
2023-03-19T03:10:23.717Z,10.12
2023-03-19T03:12:51.721Z,10.26
2023-03-19T03:15:20.047Z,10.23
2023-03-19T03:17:48.481Z,10.19
2023-03-19T03:20:19.901Z,10.32
2023-03-19T03:22:48.332Z,10.33
2023-03-19T03:25:16.656Z,10.34
2023-03-19T03:27:44.694Z,10.35
2023-03-19T03:30:13.387Z,10.40
2023-03-19T03:32:43.007Z,10.42
2023-03-19T03:35:11.272Z,10.45
2023-03-19T03:37:40.860Z,10.54
2023-03-19T03:40:10.670Z,10.49
2023-03-19T03:42:42.014Z,10.51
2023-03-19T03:45:11.233Z,10.48
2023-03-19T03:47:39.582Z,10.52
2023-03-19T03:50:10.905Z,10.60
2023-03-19T03:52:41.099Z,10.55
2023-03-19T03:55:09.982Z,10.51
2023-03-19T03:57:38.596Z,10.53
2023-03-19T04:00:07.457Z,10.64
2023-03-19T04:02:36.982Z,10.53
2023-03-19T04:05:06.350Z,10.53
2023-03-19T04:07:35.916Z,10.42
2023-03-19T04:10:05.828Z,10.49
2023-03-19T04:12:34.973Z,10.44
2023-03-19T04:15:03.402Z,10.45
2023-03-19T04:17:31.453Z,10.45
2023-03-19T04:19:59.923Z,10.44
2023-03-19T04:22:27.967Z,10.63
2023-03-19T04:24:56.014Z,10.50
2023-03-19T04:27:25.719Z,10.43
2023-03-19T04:29:53.776Z,10.43
2023-03-19T04:32:21.922Z,10.50
2023-03-19T04:34:49.950Z,10.37
2023-03-19T04:37:17.999Z,10.49
2023-03-19T04:39:46.859Z,10.41
2023-03-19T04:42:15.446Z,10.35
2023-03-19T04:44:44.891Z,10.40
2023-03-19T04:47:13.157Z,10.44
2023-03-19T04:49:41.637Z,10.44
2023-03-19T04:52:09.836Z,10.36
2023-03-19T04:54:38.228Z,10.37
2023-03-19T04:57:06.530Z,10.50
2023-03-19T04:59:34.585Z,10.47
2023-03-19T05:02:04.029Z,10.44
2023-03-19T05:04:32.078Z,10.45
2023-03-19T05:07:00.048Z,10.55
2023-03-19T05:09:28.041Z,10.55
2023-03-19T05:11:56.601Z,10.51
2023-03-19T05:14:24.781Z,10.49
2023-03-19T05:16:53.227Z,10.44
2023-03-19T05:19:22.858Z,10.38
2023-03-19T05:21:51.088Z,10.51
2023-03-19T05:24:20.068Z,10.50
2023-03-19T05:26:48.203Z,10.48
2023-03-19T05:29:16.155Z,10.41
2023-03-19T05:31:44.298Z,10.43
2023-03-19T05:34:13.064Z,10.49
2023-03-19T05:36:42.715Z,10.56
2023-03-19T05:39:10.704Z,10.55
2023-03-19T05:41:38.726Z,10.52
2023-03-19T05:44:06.947Z,10.47
2023-03-19T05:46:35.656Z,10.40
2023-03-19T05:49:03.915Z,10.50
2023-03-19T05:51:32.021Z,10.43
2023-03-19T05:54:01.943Z,10.40
2023-03-19T05:56:30.485Z,10.37
2023-03-19T05:58:58.910Z,10.45
2023-03-19T06:01:26.931Z,10.30
2023-03-19T06:03:55.011Z,10.40
2023-03-19T06:06:23.068Z,10.39
2023-03-19T06:08:51.344Z,10.37
2023-03-19T06:11:22.202Z,10.47
2023-03-19T06:13:50.340Z,10.49
2023-03-19T06:16:18.402Z,10.48
2023-03-19T06:18:47.243Z,10.54
2023-03-19T06:21:15.328Z,10.49
2023-03-19T06:23:43.840Z,10.59
2023-03-19T06:26:11.844Z,10.50
2023-03-19T06:28:41.262Z,10.60
2023-03-19T06:31:09.394Z,10.70
2023-03-19T06:33:38.946Z,10.65
2023-03-19T06:36:07.968Z,10.55
2023-03-19T06:38:36.938Z,10.63
2023-03-19T06:41:05.569Z,10.68
2023-03-19T06:43:37.027Z,10.65
2023-03-19T06:46:08.821Z,10.73
2023-03-19T06:48:37.811Z,10.70
2023-03-19T06:51:06.953Z,10.77
2023-03-19T06:53:35.026Z,10.84
2023-03-19T06:56:03.648Z,10.82
2023-03-19T06:58:31.975Z,10.81
2023-03-19T07:01:00.020Z,10.78
2023-03-19T07:03:29.443Z,10.93
2023-03-19T07:05:57.399Z,10.99
2023-03-19T07:08:29.727Z,10.96
2023-03-19T07:10:58.386Z,10.80
2023-03-19T07:13:26.552Z,10.99
2023-03-19T07:15:54.649Z,10.80
2023-03-19T07:18:22.729Z,10.91
2023-03-19T07:20:53.011Z,11.13
2023-03-19T07:23:21.076Z,11.08
2023-03-19T07:25:49.506Z,11.20
2023-03-19T07:28:17.604Z,11.16
2023-03-19T07:30:45.815Z,11.32
2023-03-19T07:33:14.479Z,11.51
2023-03-19T07:35:42.679Z,11.48
2023-03-19T07:38:12.515Z,11.49
2023-03-19T07:40:45.553Z,11.50
2023-03-19T07:43:19.685Z,11.39
2023-03-19T07:45:48.162Z,11.43
2023-03-19T07:48:16.518Z,11.38
2023-03-19T07:50:44.493Z,11.32
2023-03-19T07:53:13.915Z,11.29
2023-03-19T07:55:42.483Z,11.32
2023-03-19T07:58:11.127Z,11.20
2023-03-19T08:00:39.156Z,11.10
2023-03-19T08:03:07.255Z,11.15
2023-03-19T08:05:35.271Z,11.08
2023-03-19T08:08:03.450Z,11.05
2023-03-19T08:10:35.580Z,11.01
2023-03-19T08:13:05.389Z,11.11
2023-03-19T08:15:40.766Z,11.13
2023-03-19T08:18:09.102Z,11.03
2023-03-19T08:20:37.195Z,10.82
2023-03-19T08:23:06.206Z,10.96
2023-03-19T08:25:36.081Z,10.84
2023-03-19T08:28:07.187Z,11.06
2023-03-19T08:30:36.140Z,10.98
2023-03-19T08:33:07.243Z,10.92
2023-03-19T08:35:35.537Z,11.21
2023-03-19T08:38:04.945Z,11.12
2023-03-19T08:40:33.100Z,11.37
2023-03-19T08:43:04.089Z,11.38
2023-03-19T08:45:35.113Z,11.35
2023-03-19T08:48:04.810Z,11.41
2023-03-19T08:50:33.279Z,11.29
2023-03-19T08:53:01.608Z,11.45
2023-03-19T08:55:29.617Z,11.52
2023-03-19T08:58:00.017Z,11.45
2023-03-19T09:00:29.450Z,11.43
2023-03-19T09:02:57.684Z,11.52
2023-03-19T09:05:28.037Z,11.63
2023-03-19T09:07:57.666Z,11.63
2023-03-19T09:10:25.704Z,11.55
2023-03-19T09:12:53.860Z,11.60
2023-03-19T09:15:22.089Z,11.77
2023-03-19T09:17:51.975Z,11.92
2023-03-19T09:20:20.584Z,12.04
2023-03-19T09:22:48.746Z,12.07
2023-03-19T09:25:16.724Z,12.29
2023-03-19T09:27:46.365Z,12.38
2023-03-19T09:30:15.309Z,12.42
2023-03-19T09:32:43.672Z,12.50
2023-03-19T09:35:13.521Z,12.58
2023-03-19T09:37:41.601Z,12.56
2023-03-19T09:40:13.098Z,12.62
2023-03-19T09:42:53.849Z,12.92
2023-03-19T09:45:22.193Z,12.92
2023-03-19T09:47:51.602Z,12.93
2023-03-19T09:50:22.711Z,12.86
2023-03-19T09:52:52.766Z,13.04
2023-03-19T09:55:37.630Z,12.86
2023-03-19T09:58:09.967Z,13.13
2023-03-19T10:00:38.127Z,13.16
2023-03-19T10:03:07.671Z,13.13
2023-03-19T10:05:45.483Z,13.23
2023-03-19T10:08:27.594Z,13.35
2023-03-19T10:11:03.045Z,13.42
2023-03-19T10:13:39.651Z,13.19
2023-03-19T10:16:09.223Z,13.40
2023-03-19T10:18:39.456Z,13.56
2023-03-19T10:21:11.324Z,13.52
2023-03-19T10:23:42.311Z,13.30
2023-03-19T10:26:12.214Z,13.21
2023-03-19T10:28:40.338Z,13.20
2023-03-19T10:31:28.542Z,13.27
2023-03-19T10:34:06.759Z,13.29
2023-03-19T10:36:37.021Z,13.06
2023-03-19T10:39:07.889Z,12.92
2023-03-19T10:41:42.503Z,13.24
2023-03-19T10:44:13.694Z,13.29
2023-03-19T10:46:42.149Z,13.34
2023-03-19T10:49:13.479Z,13.32
2023-03-19T10:51:44.173Z,13.05
2023-03-19T10:54:22.610Z,13.31
2023-03-19T10:56:50.882Z,13.47
2023-03-19T10:59:24.152Z,13.31
2023-03-19T11:01:56.757Z,13.36
2023-03-19T11:04:27.970Z,13.37
2023-03-19T11:06:57.815Z,13.54
2023-03-19T11:09:31.447Z,13.30
2023-03-19T11:12:00.655Z,13.30
2023-03-19T11:14:31.322Z,13.45
2023-03-19T11:17:04.377Z,13.48
2023-03-19T11:19:37.102Z,13.38
2023-03-19T11:22:14.660Z,13.63
2023-03-19T11:24:43.372Z,13.52
2023-03-19T11:27:11.725Z,13.79
2023-03-19T11:29:42.396Z,13.54
2023-03-19T11:32:23.996Z,13.69
2023-03-19T11:34:54.021Z,13.78
2023-03-19T11:37:28.612Z,13.90
2023-03-19T11:40:01.281Z,13.93
2023-03-19T11:42:39.827Z,14.07
2023-03-19T11:45:13.783Z,13.89
2023-03-19T11:47:44.713Z,13.68
2023-03-19T11:50:19.607Z,13.62
2023-03-19T11:53:17.250Z,13.63
2023-03-19T11:55:51.422Z,13.56
2023-03-19T11:58:45.135Z,13.56
2023-03-19T12:01:17.854Z,13.26
2023-03-19T12:03:59.609Z,13.49
2023-03-19T12:06:34.928Z,13.57
2023-03-19T12:09:05.130Z,13.74
2023-03-19T12:11:38.124Z,13.41
2023-03-19T12:14:17.193Z,13.49
2023-03-19T12:16:55.961Z,13.58
2023-03-19T12:19:49.877Z,13.75
2023-03-19T12:22:23.030Z,13.77
2023-03-19T12:25:18.118Z,13.72
2023-03-19T12:27:48.877Z,13.78
2023-03-19T12:30:20.439Z,13.76
2023-03-19T12:32:58.211Z,13.82
2023-03-19T12:35:29.637Z,13.92
2023-03-19T12:37:59.684Z,13.96
2023-03-19T12:40:31.486Z,14.06
2023-03-19T12:43:01.000Z,14.24
2023-03-19T12:45:31.946Z,14.63
2023-03-19T12:48:02.094Z,14.76
2023-03-19T12:50:30.470Z,14.77
2023-03-19T12:52:58.943Z,14.54
2023-03-19T12:55:36.481Z,14.80
2023-03-19T12:58:05.777Z,14.77
2023-03-19T13:00:35.783Z,15.14
2023-03-19T13:03:06.588Z,15.27
2023-03-19T13:05:38.309Z,15.42
2023-03-19T13:08:08.394Z,15.14
2023-03-19T13:10:37.810Z,15.09
2023-03-19T13:13:23.962Z,15.34
2023-03-19T13:15:53.887Z,15.40
2023-03-19T13:18:26.248Z,15.42
2023-03-19T13:21:01.504Z,15.70
2023-03-19T13:23:32.456Z,15.40
2023-03-19T13:26:04.406Z,15.91
2023-03-19T13:28:33.636Z,15.76
2023-03-19T13:31:03.602Z,15.76
2023-03-19T13:33:33.537Z,15.88
2023-03-19T13:36:05.343Z,15.65
2023-03-19T13:38:38.912Z,15.53
2023-03-19T13:41:44.432Z,15.35
2023-03-19T13:44:29.824Z,15.32
2023-03-19T13:46:57.941Z,15.32
2023-03-19T13:49:35.750Z,15.45
2023-03-19T13:52:23.157Z,15.48
2023-03-19T13:54:53.654Z,15.23
2023-03-19T13:57:36.146Z,15.19
2023-03-19T14:00:53.905Z,15.16
2023-03-19T14:03:22.409Z,15.12
2023-03-19T14:05:51.406Z,14.60
2023-03-19T14:08:21.793Z,14.52
2023-03-19T14:10:50.670Z,14.08
2023-03-19T14:13:24.112Z,13.97
2023-03-19T14:15:55.520Z,13.70
2023-03-19T14:18:25.873Z,13.65
2023-03-19T14:20:59.636Z,13.29
2023-03-19T14:23:39.468Z,13.24
2023-03-19T14:26:14.035Z,13.23
2023-03-19T14:28:49.603Z,13.37
2023-03-19T14:31:35.886Z,13.31
2023-03-19T14:34:09.190Z,13.35
2023-03-19T14:36:38.292Z,13.45
2023-03-19T14:39:10.675Z,13.30
2023-03-19T14:41:44.871Z,13.29
2023-03-19T14:44:45.720Z,13.37
2023-03-19T14:47:43.842Z,13.16
2023-03-19T14:50:28.045Z,13.10
2023-03-19T14:52:59.583Z,13.14
2023-03-19T14:55:37.468Z,13.27
2023-03-19T14:58:05.673Z,13.29
2023-03-19T15:00:42.814Z,13.31
2023-03-19T15:03:20.299Z,13.26
2023-03-19T15:05:50.368Z,13.06
2023-03-19T15:08:22.173Z,13.27
2023-03-19T15:10:57.344Z,13.30
2023-03-19T15:13:36.391Z,13.49
2023-03-19T15:16:16.887Z,13.22
2023-03-19T15:18:45.003Z,13.38
2023-03-19T15:21:13.924Z,13.39
2023-03-19T15:23:44.070Z,13.37
2023-03-19T15:26:12.582Z,13.34
2023-03-19T15:28:49.445Z,13.32
2023-03-19T15:31:32.071Z,13.33
2023-03-19T15:34:19.434Z,13.54
2023-03-19T15:36:48.046Z,13.14
2023-03-19T15:39:16.765Z,13.16
2023-03-19T15:41:48.389Z,13.08
2023-03-19T15:44:18.214Z,13.34
2023-03-19T15:46:47.970Z,13.36
2023-03-19T15:49:17.692Z,13.40
2023-03-19T15:51:45.718Z,13.27
2023-03-19T15:54:13.755Z,13.14
2023-03-19T15:56:41.737Z,13.18
2023-03-19T15:59:13.536Z,13.10
2023-03-19T16:01:41.753Z,13.13
2023-03-19T16:04:16.398Z,13.03
2023-03-19T16:06:44.454Z,12.82
2023-03-19T16:09:22.721Z,12.86
2023-03-19T16:11:51.819Z,12.79
2023-03-19T16:14:25.077Z,12.69
2023-03-19T16:16:53.545Z,12.64
2023-03-19T16:19:35.122Z,12.60
2023-03-19T16:22:04.225Z,12.53
2023-03-19T16:24:34.265Z,12.68
2023-03-19T16:27:06.060Z,12.57
2023-03-19T16:29:37.076Z,12.49
2023-03-19T16:32:07.045Z,12.35
2023-03-19T16:34:42.300Z,12.34
2023-03-19T16:37:29.118Z,12.32
2023-03-19T16:39:57.497Z,12.15
2023-03-19T16:42:39.271Z,12.25
2023-03-19T16:45:22.772Z,12.21
2023-03-19T16:47:51.405Z,12.13
2023-03-19T16:50:21.988Z,11.90
2023-03-19T16:52:50.118Z,12.10
2023-03-19T16:55:20.815Z,11.98
2023-03-19T16:57:56.032Z,12.02
2023-03-19T17:00:24.751Z,11.90
2023-03-19T17:02:53.481Z,11.95
2023-03-19T17:05:22.962Z,12.14
2023-03-19T17:07:51.432Z,12.13
2023-03-19T17:10:21.036Z,12.18
2023-03-19T17:12:50.198Z,12.04
2023-03-19T17:15:22.929Z,11.94
2023-03-19T17:17:50.972Z,12.01
2023-03-19T17:20:19.486Z,11.76
2023-03-19T17:22:51.813Z,11.73
2023-03-19T17:25:20.261Z,11.80
2023-03-19T17:27:50.311Z,11.73
2023-03-19T17:30:18.811Z,11.67
2023-03-19T17:32:48.161Z,11.61
2023-03-19T17:35:17.089Z,11.51
2023-03-19T17:37:45.486Z,11.45
2023-03-19T17:40:19.351Z,11.49
2023-03-19T17:42:47.766Z,11.54
2023-03-19T17:45:16.375Z,11.44
2023-03-19T17:47:44.620Z,11.57
2023-03-19T17:50:19.299Z,11.57
2023-03-19T17:52:47.944Z,11.40
2023-03-19T17:55:19.167Z,11.52
2023-03-19T17:57:51.450Z,11.52
2023-03-19T18:00:19.954Z,11.52
2023-03-19T18:02:48.087Z,11.47
2023-03-19T18:05:17.428Z,11.52
2023-03-19T18:07:46.042Z,11.61
2023-03-19T18:10:19.590Z,11.50
2023-03-19T18:12:47.658Z,11.44
2023-03-19T18:15:15.894Z,11.51
2023-03-19T18:17:46.312Z,11.54
2023-03-19T18:20:15.297Z,11.58
2023-03-19T18:22:43.391Z,11.43
2023-03-19T18:25:17.669Z,11.51
2023-03-19T18:27:49.545Z,11.37
2023-03-19T18:30:19.075Z,11.46
2023-03-19T18:32:48.734Z,11.46
2023-03-19T18:35:17.187Z,11.52
2023-03-19T18:37:46.255Z,11.42
2023-03-19T18:40:15.929Z,11.52
2023-03-19T18:42:44.185Z,11.46
2023-03-19T18:45:14.637Z,11.45
2023-03-19T18:47:42.801Z,11.39
2023-03-19T18:50:17.002Z,11.46
2023-03-19T18:52:53.142Z,11.40
2023-03-19T18:55:27.085Z,11.38
2023-03-19T18:57:57.137Z,11.40
2023-03-19T19:00:29.620Z,11.50
2023-03-19T19:02:58.332Z,11.34
2023-03-19T19:05:31.870Z,11.18
2023-03-19T19:08:00.649Z,11.29
2023-03-19T19:10:32.895Z,11.30
2023-03-19T19:13:04.388Z,11.23
2023-03-19T19:15:34.658Z,11.38
2023-03-19T19:18:04.193Z,11.25
2023-03-19T19:20:35.690Z,11.27
2023-03-19T19:23:04.155Z,11.31
2023-03-19T19:25:32.289Z,11.22
2023-03-19T19:28:03.269Z,11.38
2023-03-19T19:30:31.391Z,11.28
2023-03-19T19:33:00.995Z,11.41
2023-03-19T19:35:33.576Z,11.28
2023-03-19T19:38:01.640Z,11.33
2023-03-19T19:40:31.051Z,11.29
2023-03-19T19:43:03.525Z,11.28
2023-03-19T19:45:33.488Z,11.20
2023-03-19T19:48:03.096Z,11.26
2023-03-19T19:50:31.264Z,11.29
2023-03-19T19:52:59.428Z,11.14
2023-03-19T19:55:27.713Z,11.19
2023-03-19T19:57:56.023Z,11.12
2023-03-19T20:00:28.787Z,11.11
2023-03-19T20:02:57.388Z,11.27
2023-03-19T20:05:28.002Z,11.13
2023-03-19T20:07:56.710Z,11.16
2023-03-19T20:10:25.936Z,11.21
2023-03-19T20:12:56.243Z,11.16
2023-03-19T20:15:26.355Z,11.32
2023-03-19T20:17:56.285Z,11.18
2023-03-19T20:20:27.089Z,11.23
2023-03-19T20:22:55.243Z,11.13
2023-03-19T20:25:24.153Z,11.12
2023-03-19T20:27:53.463Z,11.12
2023-03-19T20:30:28.819Z,11.14
2023-03-19T20:32:57.012Z,11.04
2023-03-19T20:35:29.370Z,11.09
2023-03-19T20:37:58.667Z,11.00
2023-03-19T20:40:29.016Z,11.08
2023-03-19T20:42:59.702Z,11.13
2023-03-19T20:45:35.727Z,11.30
2023-03-19T20:48:05.511Z,11.14
2023-03-19T20:50:35.106Z,11.16
2023-03-19T20:53:04.024Z,11.13
2023-03-19T20:55:32.955Z,11.23
2023-03-19T20:58:04.300Z,11.12
2023-03-19T21:00:33.391Z,11.10
2023-03-19T21:03:02.452Z,11.17
2023-03-19T21:05:34.920Z,11.16
2023-03-19T21:08:05.155Z,11.06
2023-03-19T21:10:35.794Z,11.15
2023-03-19T21:13:04.199Z,11.23
2023-03-19T21:15:33.592Z,11.33
2023-03-19T21:18:03.696Z,11.29
2023-03-19T21:20:33.179Z,11.21
2023-03-19T21:23:07.579Z,11.27
2023-03-19T21:25:36.277Z,11.31
2023-03-19T21:28:06.146Z,11.34
2023-03-19T21:30:35.426Z,11.22
2023-03-19T21:33:03.648Z,11.11
2023-03-19T21:35:32.051Z,10.90
2023-03-19T21:38:20.765Z,10.80
2023-03-19T21:40:49.641Z,10.85
2023-03-19T21:43:22.240Z,10.93
2023-03-19T21:45:54.735Z,10.91
2023-03-19T21:48:24.942Z,10.81
2023-03-19T21:50:53.574Z,10.71
2023-03-19T21:53:24.547Z,10.66
2023-03-19T21:55:53.990Z,10.57
2023-03-19T21:58:24.737Z,10.49
2023-03-19T22:00:53.166Z,10.57
2023-03-19T22:03:21.925Z,10.58
2023-03-19T22:05:51.302Z,10.60
2023-03-19T22:08:20.425Z,10.51
2023-03-19T22:10:53.896Z,10.44
2023-03-19T22:13:22.873Z,10.72
2023-03-19T22:15:52.219Z,10.48
2023-03-19T22:18:20.474Z,10.44
2023-03-19T22:20:48.724Z,10.45
2023-03-19T22:23:16.949Z,10.50
2023-03-19T22:25:45.632Z,10.29
2023-03-19T22:28:18.362Z,10.28
2023-03-19T22:30:46.537Z,10.27
2023-03-19T22:33:16.658Z,10.42
2023-03-19T22:35:44.842Z,10.22
2023-03-19T22:38:13.062Z,10.29
2023-03-19T22:40:41.602Z,10.13
2023-03-19T22:43:18.627Z,10.04
2023-03-19T22:45:47.869Z,10.09
2023-03-19T22:48:18.086Z,9.92
2023-03-19T22:50:46.138Z,9.95
2023-03-19T22:53:21.553Z,9.88
2023-03-19T22:55:51.788Z,9.99
2023-03-19T22:58:21.348Z,10.12
2023-03-19T23:00:49.808Z,9.98
2023-03-19T23:03:21.447Z,10.09
2023-03-19T23:05:51.154Z,10.12
2023-03-19T23:08:22.117Z,10.28
2023-03-19T23:10:50.219Z,9.91
2023-03-19T23:13:18.325Z,10.11
2023-03-19T23:15:56.643Z,10.06
2023-03-19T23:18:27.581Z,9.92
2023-03-19T23:20:55.568Z,10.18
2023-03-19T23:23:23.876Z,10.09
2023-03-19T23:25:52.339Z,9.94
2023-03-19T23:28:21.525Z,9.98
2023-03-19T23:30:51.656Z,10.05
2023-03-19T23:33:20.843Z,10.17
2023-03-19T23:35:50.589Z,9.68
2023-03-19T23:38:18.727Z,9.65
2023-03-19T23:40:46.809Z,9.63
2023-03-19T23:43:18.472Z,9.76
2023-03-19T23:45:46.960Z,9.67
2023-03-19T23:48:17.281Z,9.47
2023-03-19T23:50:46.781Z,9.48
2023-03-19T23:53:19.863Z,9.59
2023-03-19T23:55:48.594Z,9.66
2023-03-19T23:58:17.796Z,9.71
